Latest Coastal Weather Observations for Aireys Inlet

IDV60701

Issued at 5:45 pm EST Friday 19 September 2014 (issued every 10 minutes, with the page automatically refreshed every 10 minutes)

About coastal observations | Map of coastal stations | Coastal observations for VIC | Marine services | Other Formats
Station Details ID: 090180 Name: AIREYS INLET Lat: -38.46 Lon: 144.09 Height: 95.0 m
Data from the previous 72 hours. | See also: Recent months at Aireys Inlet
Date/Time
EST
Temp

°C
Wind Pressure Rain
since 9am
mm
Weather Cloud Vis
km
Sea
Height
m
Swell
Dir
 
Speed
knots
Gust
knots
hPa Trend Height
m
Period
s
Dir
19/05:30pm 11.6 SW 12 19 - - 0.0 - - - - - - -
19/05:00pm 11.9 SW 13 20 - - 0.0 - - - - - - -
19/04:30pm 12.2 SW 10 16 - - 0.0 - - - - - - -
19/04:00pm 12.1 SW 12 19 - - 0.0 - - - - - - -
19/03:30pm 11.8 SW 14 20 - - 0.0 - - - - - - -
19/03:00pm 12.0 SW 12 22 - - 0.0 - - - - - - -
19/02:30pm 12.1 SW 14 20 - - 0.0 - - - - - - -
19/02:00pm 14.1 SSW 12 19 - - 0.0 - - - - - - -
19/01:30pm 12.9 SW 12 18 - - 0.0 - - - - - - -
19/01:04pm 14.0 SW 15 25 - - 0.0 - - - - - - -
19/01:00pm 12.6 SW 16 25 - - 0.0 - - - - - - -
19/12:30pm 13.2 SW 11 15 - - 0.0 - - - - - - -
19/12:00pm 14.7 SSW 13 21 - - 0.0 - - - - - - -
19/11:30am 13.6 SSW 11 17 - - 0.0 - - - - - - -
19/11:00am 12.9 SSW 13 22 - - 0.0 - - - - - - -
19/10:30am 15.1 SSW 9 13 - - 0.0 - - - - - - -
19/10:00am 14.1 SW 8 12 - - 0.0 - - - - - - -
19/09:30am 13.3 SW 9 12 - - 0.0 - - - - - - -
19/09:00am 12.6 WSW 10 14 - - 0.0 - - - - - - -
19/08:30am 11.6 WSW 10 13 - - 0.0 - - - - - - -
19/08:00am 10.8 WSW 11 14 - - 0.0 - - - - - - -
19/07:30am 9.2 WNW 7 10 - - 0.0 - - - - - - -
19/07:00am 9.0 WNW 7 10 - - 0.0 - - - - - - -
19/06:30am 8.8 WNW 7 10 - - 0.0 - - - - - - -
19/06:00am 8.6 WNW 8 11 - - 0.0 - - - - - - -
19/05:30am 8.6 WNW 8 10 - - 0.0 - - - - - - -
19/05:00am 8.9 W 7 8 - - 0.0 - - - - - - -
19/04:30am 8.4 W 8 11 - - 0.0 - - - - - - -
19/04:00am 8.5 W 8 11 - - 0.0 - - - - - - -
19/03:30am 8.6 W 8 10 - - 0.0 - - - - - - -
19/03:00am 8.4 WNW 9 10 - - 0.0 - - - - - - -
19/02:30am 8.2 WNW 7 9 - - 0.0 - - - - - - -
19/02:00am 8.6 WNW 7 8 - - 0.0 - - - - - - -
19/01:30am 9.4 W 6 8 - - 0.0 - - - - - - -
19/01:00am 9.1 W 7 10 - - 0.0 - - - - - - -
19/12:30am 8.9 WNW 7 10 - - 0.0 - - - - - - -
19/12:00am 9.2 WNW 8 10 - - 0.0 - - - - - - -
 
Date/Time
EST
Temp

°C
Wind Pressure Rain
since 9am
mm
Weather Cloud Vis
km
Sea
Height
m
Swell
Dir
 
Speed
knots
Gust
knots
hPa Trend Height
m
Period
s
Dir
18/11:30pm 8.7 W 8 10 - - 0.0 - - - - - - -
18/11:00pm 9.1 WNW 7 13 - - 0.0 - - - - - - -
18/10:30pm 9.2 WSW 7 10 - - 0.0 - - - - - - -
18/10:00pm 8.4 WNW 5 7 - - 0.0 - - - - - - -
18/09:30pm 9.1 WNW 7 8 - - 0.0 - - - - - - -
18/09:00pm 9.2 W 7 9 - - 0.0 - - - - - - -
18/08:30pm 9.2 W 9 11 - - 0.0 - - - - - - -
18/08:00pm 9.0 W 8 12 - - 0.0 - - - - - - -
18/07:30pm 9.4 W 6 9 - - 0.0 - - - - - - -
18/07:00pm 9.6 W 7 9 - - 0.0 - - - - - - -
18/06:30pm 9.6 WSW 8 11 - - 0.0 - - - - - - -
18/06:00pm 10.6 WSW 11 17 - - 0.0 - - - - - - -
18/05:30pm 10.9 SW 14 20 - - 0.0 - - - - - - -
18/05:00pm 11.2 SW 16 23 - - 0.0 - - - - - - -
18/04:30pm 12.5 SSW 16 25 - - 0.0 - - - - - - -
18/04:00pm 12.9 SSW 15 22 - - 0.0 - - - - - - -
18/03:30pm 13.4 SSW 14 24 - - 0.0 - - - - - - -
18/03:08pm 13.1 SSW 17 27 - - 0.0 - - - - - - -
18/03:00pm 12.7 SSW 19 28 - - 0.0 - - - - - - -
18/02:30pm 13.0 SSW 18 28 - - 0.0 - - - - - - -
18/02:21pm 13.4 SW 17 28 - - 0.0 - - - - - - -
18/02:00pm 13.4 SSW 15 24 - - 0.0 - - - - - - -
18/01:30pm 13.6 SSW 14 22 - - 0.0 - - - - - - -
18/01:00pm 13.8 SSW 12 19 - - 0.0 - - - - - - -
18/12:30pm 12.0 SSW 14 21 - - 0.0 - - - - - - -
18/12:00pm 13.3 SSW 15 22 - - 0.0 - - - - - - -
18/11:30am 12.3 SSW 15 22 - - 0.0 - - - - - - -
18/11:00am 11.8 SW 17 25 - - 0.0 - - - - - - -
18/10:32am 12.1 SW 15 26 - - 0.0 - - - - - - -
18/10:30am 12.2 SW 14 26 - - 0.0 - - - - - - -
18/10:00am 12.4 SW 9 15 - - 0.0 - - - - - - -
18/09:30am 10.0 SW 15 21 - - 0.0 - - - - - - -
18/09:00am 10.7 SW 13 19 - - 1.6 - - - - - - -
18/08:30am 9.5 WSW 13 19 - - 1.6 - - - - - - -
18/08:00am 9.1 WSW 11 17 - - 1.6 - - - - - - -
18/07:30am 8.6 SW 9 15 - - 1.6 - - - - - - -
18/07:00am 8.1 WSW 11 16 - - 1.6 - - - - - - -
18/06:30am 8.0 WSW 11 17 - - 1.6 - - - - - - -
18/06:00am 8.1 SW 12 20 - - 1.4 - - - - - - -
18/05:30am 8.0 W 9 13 - - 1.4 - - - - - - -
18/05:00am 8.1 WSW 10 15 - - 1.4 - - - - - - -
18/04:30am 8.1 W 10 15 - - 1.4 - - - - - - -
18/04:00am 8.0 WSW 11 16 - - 1.4 - - - - - - -
18/03:30am 7.5 WSW 10 15 - - 1.4 - - - - - - -
18/03:00am 7.6 W 10 14 - - 1.2 - - - - - - -
18/02:36am 7.6 SW 19 24 - - 1.2 - - - - - - -
18/02:30am 7.2 W 9 14 - - 1.2 - - - - - - -
18/02:00am 7.4 WSW 17 23 - - 1.2 - - - - - - -
18/01:30am 7.0 W 9 14 - - 0.8 - - - - - - -
18/01:00am 7.5 W 9 13 - - 0.6 - - - - - - -
18/12:30am 7.6 W 11 15 - - 0.4 - - - - - - -
18/12:00am 6.8 WNW 10 12 - - 0.4 - - - - - - -
 
Date/Time
EST
Temp

°C
Wind Pressure Rain
since 9am
mm
Weather Cloud Vis
km
Sea
Height
m
Swell
Dir
 
Speed
knots
Gust
knots
hPa Trend Height
m
Period
s
Dir
17/11:30pm 7.3 W 11 14 - - 0.4 - - - - - - -
17/11:00pm 7.5 W 12 16 - - 0.4 - - - - - - -
17/10:30pm 7.8 W 13 18 - - 0.4 - - - - - - -
17/10:00pm 7.5 W 12 17 - - 0.4 - - - - - - -
17/09:30pm 7.7 W 11 17 - - 0.4 - - - - - - -
17/09:00pm 8.2 W 14 19 - - 0.4 - - - - - - -
17/08:30pm 7.6 W 9 15 - - 0.4 - - - - - - -
17/08:00pm 7.6 W 9 12 - - 0.4 - - - - - - -
17/07:30pm 7.7 WNW 7 10 - - 0.4 - - - - - - -
17/07:00pm 8.1 W 9 12 - - 0.4 - - - - - - -
17/06:30pm 8.1 W 11 16 - - 0.4 - - - - - - -
17/06:00pm 8.8 WSW 11 17 - - 0.4 - - - - - - -
17/05:30pm 9.7 W 12 16 - - 0.4 - - - - - - -
17/05:00pm 9.8 WSW 14 21 - - 0.4 - - - - - - -
17/04:33pm 9.9 SW 15 31 - - 0.4 - - - - - - -
17/04:30pm 10.7 SW 12 31 - - 0.4 - - - - - - -
17/04:00pm 11.0 WSW 14 23 - - 0.4 - - - - - - -
17/03:53pm 9.5 WSW 16 27 - - 0.4 - - - - - - -
17/03:30pm 10.9 WSW 19 27 - - 0.4 - - - - - - -
17/03:14pm 10.7 SW 15 26 - - 0.4 - - - - - - -
17/03:00pm 10.9 SW 17 25 - - 0.4 - - - - - - -
17/02:44pm 12.9 SW 15 26 - - 0.4 - - - - - - -
17/02:30pm 11.4 SW 13 19 - - 0.4 - - - - - - -
17/02:00pm 11.2 WSW 18 25 - - 0.4 - - - - - - -
17/01:43pm 10.7 SW 15 27 - - 0.0 - - - - - - -
17/01:30pm 11.1 SSW 13 21 - - 0.0 - - - - - - -
17/01:20pm 12.0 WSW 17 28 - - 0.0 - - - - - - -
17/01:00pm 11.9 SW 16 24 - - 0.0 - - - - - - -
17/12:45pm 12.5 WSW 16 26 - - 0.0 - - - - - - -
17/12:30pm 11.9 W 18 27 - - 0.0 - - - - - - -
17/12:09pm 11.2 W 15 25 - - 0.0 - - - - - - -
17/12:00pm 11.4 WSW 20 28 - - 0.0 - - - - - - -
17/11:30am 12.8 W 15 27 - - 0.0 - - - - - - -
17/11:03am 11.8 W 15 26 - - 0.0 - - - - - - -
17/11:00am 11.7 W 14 20 - - 0.0 - - - - - - -
17/10:30am 12.1 WSW 13 21 - - 0.0 - - - - - - -
17/10:00am 12.3 W 15 24 - - 0.0 - - - - - - -
17/09:30am 11.6 W 12 18 - - 0.0 - - - - - - -
17/09:00am 10.5 W 9 15 - - 0.4 - - - - - - -
17/08:30am 10.4 W 10 16 - - 0.4 - - - - - - -
17/08:00am 9.6 WNW 8 13 - - 0.4 - - - - - - -
17/07:30am 9.7 W 8 14 - - 0.4 - - - - - - -
17/07:00am 9.4 NW 6 9 - - 0.4 - - - - - - -
17/06:30am 9.2 WNW 9 14 - - 0.4 - - - - - - -
17/06:00am 8.9 WNW 5 7 - - 0.4 - - - - - - -
17/05:30am 9.0 WNW 7 9 - - 0.4 - - - - - - -
17/05:00am 9.3 W 7 11 - - 0.4 - - - - - - -
17/04:30am 9.2 WNW 8 13 - - 0.4 - - - - - - -
17/04:00am 9.3 W 2 7 - - 0.4 - - - - - - -
17/03:30am 9.2 WNW 2 5 - - 0.2 - - - - - - -
17/03:00am 8.8 NW 5 10 - - 0.2 - - - - - - -
17/02:30am 8.9 NW 6 10 - - 0.2 - - - - - - -
17/02:00am 9.2 WNW 10 14 - - 0.2 - - - - - - -
17/01:30am 9.0 NW 9 13 - - 0.2 - - - - - - -
17/01:00am 8.7 WNW 5 9 - - 0.2 - - - - - - -
17/12:30am 8.8 WSW 4 8 - - 0.2 - - - - - - -
17/12:00am 9.1 S 1 4 - - 0.2 - - - - - - -
 
Date/Time
EST
Temp

°C
Wind Pressure Rain
since 9am
mm
Weather Cloud Vis
km
Sea
Height
m
Swell
Dir
 
Speed
knots
Gust
knots
hPa Trend Height
m
Period
s
Dir
16/11:30pm 9.2 W 1 4 - - 0.2 - - - - - - -
16/11:00pm 10.1 WNW 6 9 - - 0.2 - - - - - - -
16/10:30pm 9.9 WNW 7 11 - - 0.2 - - - - - - -
16/10:00pm 9.4 NW 8 9 - - 0.2 - - - - - - -
16/09:30pm 9.3 NNW 2 5 - - 0.2 - - - - - - -
16/09:00pm 9.6 WNW 2 5 - - 0.0 - - - - - - -
16/08:30pm 9.8 WNW 7 9 - - 0.0 - - - - - - -
16/08:00pm 10.0 WNW 7 10 - - 0.0 - - - - - - -
16/07:30pm 10.1 W 7 9 - - 0.0 - - - - - - -
16/07:00pm 10.3 W 6 9 - - 0.0 - - - - - - -
16/06:30pm 10.7 W 10 13 - - 0.0 - - - - - - -
16/06:00pm 11.7 WSW 9 13 - - 0.0 - - - - - - -

Other Formats:

Comma delimited format used in spreadsheet applications
http://www.bom.gov.au/fwo/IDV60701/IDV60701.94846.axf

JavaScript Object Notation format (JSON) in row-major order
http://www.bom.gov.au/fwo/IDV60701/IDV60701.94846.json